Time;durP1;ratioP1;P1;durP2;ratioP2;P2;SDS_P1;SDS_P2;PMS_P1;PMS_P2;Temp;Humidity;BMP_temperature;BMP_pressure;BME280_temperature;BME280_humidity;BME280_pressure;Samples;Min_cycle;Max_cycle;Signal;HPM_P1;HPM_P2
2023/06/13 00:01:15;;;;;;;8.23;3.78;;;25.00;52.60;;;;;;6156675;23;20005;-91
2023/06/13 00:03:41;;;;;;;5.35;3.60;;;24.90;52.50;;;;;;6155907;23;20456;-91
2023/06/13 00:06:07;;;;;;;7.45;3.75;;;24.90;52.70;;;;;;6157023;23;20306;-91
2023/06/13 00:08:35;;;;;;;7.13;3.60;;;24.80;52.60;;;;;;6155628;23;20009;-89
2023/06/13 00:11:06;;;;;;;7.43;3.70;;;24.80;52.60;;;;;;6155840;23;20064;-90
2023/06/13 00:13:32;;;;;;;9.95;3.78;;;24.80;52.50;;;;;;6156798;23;20056;-96
2023/06/13 00:16:03;;;;;;;9.73;4.20;;;24.70;52.50;;;;;;6159518;23;19998;-94
2023/06/13 00:18:29;;;;;;;7.80;3.95;;;24.70;52.60;;;;;;6161037;23;20003;-96
2023/06/13 00:20:55;;;;;;;5.35;3.60;;;24.60;52.80;;;;;;6161345;23;20009;-96
2023/06/13 00:23:27;;;;;;;5.85;3.67;;;24.60;53.00;;;;;;6167936;23;20001;-95
2023/06/13 00:25:56;;;;;;;5.03;3.53;;;24.50;52.90;;;;;;6161885;23;20016;-96
2023/06/13 00:28:22;;;;;;;9.15;4.35;;;24.50;53.20;;;;;;6158684;23;20056;-90
2023/06/13 00:30:55;;;;;;;7.25;3.80;;;24.40;53.20;;;;;;6142618;23;20021;-90
2023/06/13 00:33:21;;;;;;;6.35;4.35;;;24.40;53.30;;;;;;6158267;23;20149;-89
2023/06/13 00:35:56;;;;;;;6.32;4.13;;;24.30;53.50;;;;;;6158173;23;20006;-93
2023/06/13 00:38:28;;;;;;;6.00;4.10;;;24.30;53.80;;;;;;6158620;23;20013;-92
2023/06/13 00:40:54;;;;;;;6.07;3.55;;;24.30;53.70;;;;;;6157854;23;20014;-93
2023/06/13 00:43:29;;;;;;;8.95;3.90;;;24.20;53.60;;;;;;6157545;23;20056;-91
2023/06/13 00:45:56;;;;;;;4.68;3.45;;;24.20;53.80;;;;;;6157820;23;20084;-92
2023/06/13 00:48:22;;;;;;;6.53;3.90;;;24.20;53.90;;;;;;6158076;23;20077;-92
2023/06/13 00:50:57;;;;;;;6.50;3.85;;;24.10;53.90;;;;;;6156895;23;20096;-91
2023/06/13 00:53:23;;;;;;;7.72;3.78;;;24.10;53.90;;;;;;6159193;23;20006;-91
2023/06/13 00:55:52;;;;;;;9.00;3.92;;;24.10;54.20;;;;;;6158410;23;20002;-90
2023/06/13 00:58:20;;;;;;;6.68;3.95;;;24.00;54.10;;;;;;6158172;23;20096;-91
2023/06/13 01:00:55;;;;;;;9.07;3.60;;;24.00;54.20;;;;;;6157703;23;20085;-91
2023/06/13 01:03:20;;;;;;;6.55;4.20;;;23.90;53.90;;;;;;6157405;23;20014;-91
2023/06/13 01:05:49;;;;;;;8.80;3.78;;;23.90;54.20;;;;;;6157399;23;20094;-91
2023/06/13 01:11:45;;;;;;;7.50;3.80;;;23.80;55.10;;;;;;6158352;23;20097;-92
2023/06/13 01:14:17;;;;;;;6.97;3.80;;;23.80;54.80;;;;;;6157299;23;20071;-92
2023/06/13 01:16:54;;;;;;;6.88;4.00;;;23.70;54.70;;;;;;6160895;23;20006;-95
2023/06/13 01:19:37;;;;;;;9.00;4.45;;;23.70;54.80;;;;;;6161524;23;20009;-93
2023/06/13 01:22:12;;;;;;;7.45;4.20;;;23.70;55.30;;;;;;6158953;23;20009;-93
2023/06/13 01:28:13;;;;;;;7.10;4.10;;;23.60;55.80;;;;;;6161196;23;20033;-93
2023/06/13 01:30:53;;;;;;;7.15;4.15;;;23.50;55.90;;;;;;6172026;23;20017;-92
2023/06/13 01:33:21;;;;;;;7.43;4.95;;;23.50;55.90;;;;;;6183207;23;20018;-96
2023/06/13 01:35:53;;;;;;;9.02;4.35;;;23.40;55.80;;;;;;6180046;23;20057;-95
2023/06/13 01:38:22;;;;;;;9.00;4.03;;;23.40;56.00;;;;;;6179173;23;19989;-95
2023/06/13 01:40:52;;;;;;;7.35;3.90;;;23.30;56.00;;;;;;6172762;23;20037;-94
2023/06/13 01:43:29;;;;;;;6.82;4.10;;;23.30;56.20;;;;;;6166868;23;20010;-95
2023/06/13 01:46:18;;;;;;;10.23;3.97;;;23.20;56.20;;;;;;6164138;23;20068;-91
2023/06/13 01:48:57;;;;;;;6.45;4.22;;;23.20;56.50;;;;;;6157967;23;20005;-93
2023/06/13 01:51:58;;;;;;;8.43;4.38;;;23.20;56.80;;;;;;6159116;23;20013;-95
2023/06/13 01:54:26;;;;;;;6.90;3.92;;;23.10;56.80;;;;;;6165187;23;20006;-96
2023/06/13 01:57:09;;;;;;;6.60;4.15;;;23.00;56.80;;;;;;6165826;23;20414;-96
2023/06/13 01:59:47;;;;;;;8.48;4.30;;;23.00;57.10;;;;;;6161031;23;20005;-91
2023/06/13 02:02:19;;;;;;;9.63;4.07;;;22.90;57.10;;;;;;6156040;23;20309;-90
2023/06/13 02:04:55;;;;;;;8.57;4.50;;;22.90;57.20;;;;;;6157239;23;20085;-96
2023/06/13 02:07:36;;;;;;;6.20;4.18;;;22.90;57.20;;;;;;6162388;23;20084;-96
2023/06/13 02:10:05;;;;;;;7.03;4.25;;;22.80;57.30;;;;;;6141160;23;20010;-96
2023/06/13 02:12:40;;;;;;;6.65;4.03;;;22.80;57.20;;;;;;6161793;23;20073;-91
2023/06/13 02:15:08;;;;;;;6.88;3.80;;;22.80;57.40;;;;;;6161156;23;20001;-92
2023/06/13 02:17:40;;;;;;;8.25;4.30;;;22.70;57.30;;;;;;6157395;23;20017;-95
2023/06/13 02:20:07;;;;;;;5.80;4.10;;;22.70;57.90;;;;;;6177491;23;20092;-91
2023/06/13 02:22:35;;;;;;;6.55;4.20;;;22.60;57.60;;;;;;6164092;23;20006;-90
2023/06/13 02:25:03;;;;;;;6.50;4.10;;;22.60;58.20;;;;;;6157355;23;20089;-95
2023/06/13 02:30:23;;;;;;;7.32;4.00;;;22.60;58.00;;;;;;6170868;23;20012;-91
2023/06/13 02:32:58;;;;;;;9.68;4.20;;;22.50;57.80;;;;;;6161251;23;20377;-92
2023/06/13 02:35:26;;;;;;;6.78;4.22;;;22.50;57.80;;;;;;6172683;23;20013;-91
2023/06/13 02:38:16;;;;;;;9.38;4.68;;;22.40;57.60;;;;;;6170655;23;20174;-92
2023/06/13 02:40:42;;;;;;;8.95;4.50;;;22.40;57.60;;;;;;6187805;23;20332;-94
2023/06/13 02:43:08;;;;;;;9.80;5.18;;;22.40;57.50;;;;;;6161388;23;20005;-94
2023/06/13 02:45:43;;;;;;;7.63;4.88;;;22.30;57.60;;;;;;6161528;23;20009;-94
2023/06/13 02:48:10;;;;;;;7.20;4.90;;;22.30;57.60;;;;;;6161604;23;20009;-94
2023/06/13 02:50:36;;;;;;;7.55;5.30;;;22.30;57.70;;;;;;6161752;23;20005;-94
2023/06/13 02:53:01;;;;;;;11.52;5.38;;;22.30;58.00;;;;;;6182445;23;20024;-92
2023/06/13 02:55:33;;;;;;;7.60;5.50;;;22.30;58.00;;;;;;6171228;23;20008;-93
2023/06/13 02:58:04;;;;;;;8.85;5.18;;;22.20;58.00;;;;;;6161371;23;20436;-93
2023/06/13 03:00:33;;;;;;;8.55;5.43;;;22.20;58.00;;;;;;6161502;23;20016;-93
2023/06/13 03:03:02;;;;;;;13.18;5.00;;;22.10;58.20;;;;;;6161649;23;20020;-90
2023/06/13 03:05:32;;;;;;;8.98;4.47;;;22.10;58.60;;;;;;6161875;23;20009;-91
2023/06/13 03:07:59;;;;;;;7.22;5.07;;;22.10;58.80;;;;;;6161855;23;20009;-91
2023/06/13 03:10:25;;;;;;;8.77;4.82;;;22.00;58.90;;;;;;6161512;23;20073;-92
2023/06/13 03:12:56;;;;;;;10.50;5.00;;;22.00;59.00;;;;;;6160926;23;20044;-90
2023/06/13 03:15:22;;;;;;;8.75;4.57;;;21.90;59.30;;;;;;6161787;23;20024;-90
2023/06/13 03:17:49;;;;;;;10.13;4.97;;;21.90;59.00;;;;;;6162109;23;20324;-92
2023/06/13 03:20:20;;;;;;;6.55;4.30;;;21.90;59.00;;;;;;6161965;23;20369;-92
2023/06/13 03:22:46;;;;;;;10.90;4.15;;;21.80;59.30;;;;;;6161738;23;20013;-93
2023/06/13 03:25:15;;;;;;;8.00;4.78;;;21.80;59.30;;;;;;6161792;23;20468;-92
2023/06/13 03:27:44;;;;;;;12.00;4.53;;;21.80;59.00;;;;;;6162250;23;20001;-92
2023/06/13 03:30:44;;;;;;;9.77;4.63;;;21.70;59.20;;;;;;6161487;23;20016;-92
2023/06/13 03:33:13;;;;;;;8.82;4.30;;;21.70;58.90;;;;;;6176533;23;20045;-95
2023/06/13 03:35:47;;;;;;;10.00;4.25;;;21.60;59.10;;;;;;6171661;23;20001;-94
2023/06/13 03:38:27;;;;;;;9.55;4.63;;;21.60;59.40;;;;;;6164514;23;20001;-91
2023/06/13 03:40:53;;;;;;;13.50;5.00;;;21.60;59.10;;;;;;6163309;23;20044;-90
2023/06/13 03:43:18;;;;;;;8.20;4.35;;;21.50;59.10;;;;;;6167300;23;20001;-90
2023/06/13 03:45:45;;;;;;;6.22;4.20;;;21.60;59.10;;;;;;6163311;23;20016;-91
2023/06/13 03:48:14;;;;;;;8.07;4.70;;;21.60;59.20;;;;;;6160740;23;20036;-90
2023/06/13 03:50:40;;;;;;;8.77;4.10;;;21.50;59.10;;;;;;6161334;23;20477;-90
2023/06/13 03:53:17;;;;;;;8.90;4.53;;;21.50;59.20;;;;;;6164545;23;20005;-95
2023/06/13 04:02:19;;;;;;;7.13;4.57;;;21.40;59.40;;;;;;6062272;23;20070;-92
2023/06/13 04:08:17;;;;;;;6.93;4.50;;;21.40;59.70;;;;;;6067757;23;20560;-91
2023/06/13 04:10:50;;;;;;;5.78;4.20;;;21.40;59.70;;;;;;6132692;23;20084;-94
2023/06/13 04:13:28;;;;;;;7.20;4.43;;;21.30;59.80;;;;;;6160988;23;20006;-93
2023/06/13 04:15:56;;;;;;;7.15;3.90;;;21.40;59.80;;;;;;6164127;23;19997;-92
2023/06/13 04:18:48;;;;;;;7.72;4.60;;;21.30;59.90;;;;;;6160708;23;20322;-90
2023/06/13 04:21:21;;;;;;;8.07;4.32;;;21.30;60.10;;;;;;6160903;23;20084;-90
2023/06/13 04:23:55;;;;;;;7.18;4.60;;;21.30;60.00;;;;;;6160665;23;20060;-91
2023/06/13 04:26:27;;;;;;;9.15;4.47;;;21.30;59.90;;;;;;6165838;23;20035;-96
2023/06/13 04:29:01;;;;;;;7.53;4.60;;;21.30;60.00;;;;;;6173074;23;20008;-95
2023/06/13 04:35:05;;;;;;;8.98;4.65;;;21.30;60.30;;;;;;6156828;23;20604;-91
2023/06/13 04:37:45;;;;;;;7.30;4.28;;;21.30;60.30;;;;;;6109081;23;20025;-96
2023/06/13 04:40:24;;;;;;;7.60;4.60;;;21.30;60.40;;;;;;6107696;23;20426;-95
2023/06/13 04:42:54;;;;;;;8.40;4.35;;;21.20;60.60;;;;;;6108061;23;20005;-91
2023/06/13 04:45:33;;;;;;;15.65;5.38;;;21.20;60.70;;;;;;6126130;23;20038;-93
2023/06/13 04:48:01;;;;;;;9.88;4.65;;;21.20;60.50;;;;;;6077612;23;20009;-94
2023/06/13 04:50:37;;;;;;;9.00;4.97;;;21.30;60.80;;;;;;6101808;23;20010;-93
2023/06/13 04:53:11;;;;;;;7.93;4.35;;;21.20;60.90;;;;;;6078505;23;20109;-91
2023/06/13 04:55:49;;;;;;;8.93;4.82;;;21.30;61.10;;;;;;6101167;23;20010;-90
2023/06/13 04:58:17;;;;;;;14.98;4.80;;;21.20;61.00;;;;;;6100478;23;20006;-89
2023/06/13 05:00:48;;;;;;;7.53;4.55;;;21.20;60.80;;;;;;6077456;23;20010;-90
2023/06/13 05:03:17;;;;;;;;;;;21.20;61.10;;;;;;6102745;23;20020;-88
2023/06/13 05:05:52;;;;;;;6.30;4.53;;;21.20;61.80;;;;;;6106738;23;19951;-94
2023/06/13 05:08:21;;;;;;;8.15;4.53;;;21.20;61.60;;;;;;6084996;23;20385;-90
2023/06/13 05:14:21;;;;;;;9.93;4.55;;;21.30;62.00;;;;;;6140261;23;20013;-96
2023/06/13 05:16:56;;;;;;;8.45;4.22;;;21.30;61.90;;;;;;6138579;23;20414;-95
2023/06/13 05:19:40;;;;;;;8.15;4.35;;;21.30;61.90;;;;;;6116835;23;20010;-94
2023/06/13 05:22:09;;;;;;;9.25;4.57;;;21.30;62.00;;;;;;6135799;23;20010;-96
2023/06/13 05:24:35;;;;;;;8.80;4.63;;;21.30;62.20;;;;;;6134670;23;20309;-91
2023/06/13 05:27:07;;;;;;;8.38;4.53;;;21.30;62.10;;;;;;6130459;23;20014;-90
2023/06/13 05:29:40;;;;;;;7.50;5.05;;;21.30;62.30;;;;;;6107341;23;20017;-90
2023/06/13 05:32:15;;;;;;;6.70;4.57;;;21.30;62.40;;;;;;6131779;23;20014;-90
2023/06/13 05:34:43;;;;;;;14.68;4.78;;;21.30;62.50;;;;;;6138427;23;20006;-90
2023/06/13 05:37:38;;;;;;;12.07;5.35;;;21.40;62.70;;;;;;6166378;23;20016;-91
2023/06/13 05:40:10;;;;;;;7.00;4.75;;;21.40;63.10;;;;;;6161896;23;20484;-90
2023/06/13 05:42:54;;;;;;;10.40;4.47;;;21.40;63.20;;;;;;6162535;23;20092;-93
2023/06/13 05:45:23;;;;;;;7.13;4.13;;;21.40;63.40;;;;;;6162390;23;20033;-93
2023/06/13 05:47:50;;;;;;;9.43;4.82;;;21.40;63.50;;;;;;6162227;23;20005;-92
2023/06/13 05:50:16;;;;;;;8.25;4.70;;;21.50;63.40;;;;;;6162098;23;20027;-93
2023/06/13 05:53:11;;;;;;;10.55;4.80;;;21.50;63.10;;;;;;6162135;23;20024;-93
2023/06/13 05:55:40;;;;;;;8.65;4.90;;;21.50;63.30;;;;;;6162067;23;20008;-94
2023/06/13 05:58:06;;;;;;;7.82;4.30;;;21.50;63.30;;;;;;6162230;23;20039;-93
2023/06/13 06:00:40;;;;;;;9.10;4.80;;;21.50;63.40;;;;;;6161921;23;20076;-93
2023/06/13 06:03:09;;;;;;;10.73;4.78;;;21.60;63.70;;;;;;6162176;23;20071;-93
2023/06/13 06:05:38;;;;;;;9.32;4.60;;;21.60;63.70;;;;;;6162184;23;20020;-93
2023/06/13 06:08:19;;;;;;;;;;;;;;;;;;;;;
2023/06/13 06:10:51;;;;;;;8.93;4.43;;;21.60;63.60;;;;;;6188779;23;20084;-94
2023/06/13 06:13:29;;;;;;;6.32;4.22;;;21.70;63.40;;;;;;6161639;23;20001;-91
2023/06/13 06:16:12;;;;;;;8.68;4.55;;;21.70;63.60;;;;;;6161106;23;20006;-92
2023/06/13 06:18:41;;;;;;;6.45;4.22;;;21.70;63.80;;;;;;6161156;23;20055;-91
2023/06/13 06:21:07;;;;;;;11.45;4.78;;;21.80;63.80;;;;;;6161292;23;20092;-91
2023/06/13 06:23:36;;;;;;;8.00;4.57;;;21.80;63.80;;;;;;6161866;23;20047;-90
2023/06/13 06:26:04;;;;;;;8.88;4.82;;;21.80;63.90;;;;;;6161626;23;20009;-90
2023/06/13 06:28:38;;;;;;;8.35;4.70;;;21.90;63.70;;;;;;6161668;23;20096;-91
2023/06/13 06:31:16;;;;;;;11.20;5.00;;;21.90;63.70;;;;;;6161725;23;20009;-90
2023/06/13 06:33:49;;;;;;;7.70;4.15;;;21.90;64.00;;;;;;6162348;23;20001;-92
2023/06/13 06:36:31;;;;;;;12.30;4.65;;;22.00;64.00;;;;;;6155724;23;20037;-91
2023/06/13 06:38:56;;;;;;;11.15;4.20;;;22.00;63.70;;;;;;6156456;23;20029;-91
2023/06/13 06:41:28;;;;;;;7.25;4.63;;;22.10;63.60;;;;;;6155300;23;20020;-91
2023/06/13 06:44:05;;;;;;;10.10;4.82;;;22.10;63.60;;;;;;6155810;23;20072;-90
2023/06/13 06:46:53;;;;;;;9.00;4.10;;;22.10;63.30;;;;;;6156946;23;20010;-90
2023/06/13 06:49:23;;;;;;;6.40;4.45;;;22.20;63.40;;;;;;6170447;23;20084;-91
2023/06/13 06:52:11;;;;;;;6.05;3.95;;;22.20;63.40;;;;;;6177001;23;20033;-91
2023/06/13 06:54:40;;;;;;;8.77;4.32;;;22.30;63.60;;;;;;6177130;23;20337;-90
2023/06/13 06:57:11;;;;;;;11.80;4.18;;;22.30;63.70;;;;;;6178796;23;20006;-90
2023/06/13 06:59:37;;;;;;;14.00;5.05;;;22.30;64.10;;;;;;6177542;23;19997;-89
2023/06/13 07:02:06;;;;;;;13.00;4.63;;;22.40;63.90;;;;;;6152466;23;20013;-88
2023/06/13 07:04:32;;;;;;;13.38;4.82;;;22.40;63.50;;;;;;6151279;23;20005;-93
2023/06/13 07:06:58;;;;;;;12.55;3.90;;;22.50;63.70;;;;;;6131940;23;20515;-92
2023/06/13 07:09:24;;;;;;;13.50;4.68;;;22.50;63.60;;;;;;6130646;23;20096;-92
2023/06/13 07:11:56;;;;;;;11.27;4.40;;;22.60;63.90;;;;;;6156812;23;20032;-93
2023/06/13 07:14:25;;;;;;;9.43;4.13;;;22.70;64.80;;;;;;6157425;23;20071;-93
2023/06/13 07:16:52;;;;;;;5.93;3.75;;;22.70;64.50;;;;;;6157573;23;20294;-93
2023/06/13 07:19:28;;;;;;;8.20;3.78;;;22.80;64.60;;;;;;6132060;23;20010;-92
2023/06/13 07:22:00;;;;;;;17.50;4.10;;;22.80;64.80;;;;;;6156868;23;20010;-94
2023/06/13 07:24:33;;;;;;;10.52;3.83;;;22.80;65.00;;;;;;6155490;23;20056;-89
2023/06/13 07:27:07;;;;;;;9.90;4.35;;;22.90;65.10;;;;;;6155776;23;20499;-95
2023/06/13 07:29:40;;;;;;;25.02;5.63;;;23.00;64.70;;;;;;6159491;23;20454;-93
2023/06/13 07:32:16;;;;;;;13.98;4.20;;;23.00;64.40;;;;;;6158244;23;20013;-95
2023/06/13 07:35:02;;;;;;;10.43;4.00;;;23.10;65.30;;;;;;6157732;23;20092;-94
2023/06/13 07:38:35;;;;;;;8.05;4.35;;;23.10;64.60;;;;;;6157284;23;20017;-94
2023/06/13 07:41:05;;;;;;;8.65;3.90;;;23.20;64.20;;;;;;6155683;23;20010;-89
2023/06/13 07:43:49;;;;;;;10.07;4.10;;;23.30;64.30;;;;;;6155359;23;20013;-89
2023/06/13 07:46:17;;;;;;;7.50;4.03;;;23.40;64.50;;;;;;6156004;23;20033;-89
2023/06/13 07:48:48;;;;;;;11.68;4.43;;;23.40;64.50;;;;;;6155583;23;20024;-90
2023/06/13 07:51:17;;;;;;;7.07;4.65;;;23.50;63.50;;;;;;6130803;23;20010;-90
2023/06/13 07:53:45;;;;;;;19.05;4.50;;;23.50;62.10;;;;;;6155244;23;20006;-89
2023/06/13 07:56:16;;;;;;;8.88;4.07;;;23.60;62.10;;;;;;6176141;23;19994;-89
2023/06/13 07:58:42;;;;;;;8.82;4.45;;;23.60;62.10;;;;;;6179399;23;20029;-89
2023/06/13 08:01:08;;;;;;;5.97;4.03;;;23.70;62.30;;;;;;6152400;23;20053;-89
2023/06/13 08:03:38;;;;;;;6.65;3.70;;;23.80;61.90;;;;;;6171626;23;20009;-90
2023/06/13 08:06:10;;;;;;;6.55;3.80;;;23.80;61.20;;;;;;6159861;23;20041;-92
2023/06/13 08:08:38;;;;;;;5.25;3.60;;;23.90;61.30;;;;;;6156148;23;20036;-92
2023/06/13 08:11:12;;;;;;;7.03;3.60;;;23.90;61.70;;;;;;6131496;23;20020;-92
2023/06/13 08:13:45;;;;;;;13.60;4.10;;;24.00;62.00;;;;;;6157039;23;20017;-93
2023/06/13 08:16:11;;;;;;;6.38;3.95;;;24.10;61.40;;;;;;6156541;23;20060;-92
2023/06/13 08:18:39;;;;;;;9.90;4.18;;;24.10;59.60;;;;;;6131985;23;20002;-91
2023/06/13 08:21:08;;;;;;;9.65;3.90;;;24.20;58.80;;;;;;6156527;23;20013;-91
2023/06/13 08:23:40;;;;;;;6.80;4.10;;;24.30;58.00;;;;;;6131936;23;20017;-92
2023/06/13 08:26:05;;;;;;;13.23;4.15;;;24.30;57.70;;;;;;6156891;23;20033;-94
2023/06/13 08:28:35;;;;;;;20.80;5.32;;;24.40;57.00;;;;;;6135010;23;20009;-96
2023/06/13 08:31:05;;;;;;;7.73;4.17;;;24.50;57.20;;;;;;6161451;23;20487;-95
2023/06/13 08:33:36;;;;;;;7.27;4.00;;;24.50;57.20;;;;;;6161894;23;20003;-95
2023/06/13 08:36:02;;;;;;;9.00;3.90;;;24.60;57.30;;;;;;6162867;23;20032;-95
2023/06/13 08:38:28;;;;;;;6.40;3.75;;;24.60;57.60;;;;;;6164579;23;20008;-94
2023/06/13 08:41:03;;;;;;;7.97;3.83;;;24.70;57.70;;;;;;6163541;23;20006;-95
2023/06/13 08:43:29;;;;;;;8.00;4.10;;;24.80;57.00;;;;;;6165402;23;20033;-96
2023/06/13 08:46:10;;;;;;;8.38;4.10;;;24.80;57.30;;;;;;6159365;23;20010;-92
2023/06/13 08:48:36;;;;;;;9.57;4.30;;;24.90;58.20;;;;;;6157566;23;20405;-92
2023/06/13 08:51:05;;;;;;;9.20;4.28;;;24.90;57.80;;;;;;6157514;23;20021;-92
2023/06/13 08:53:56;;;;;;;7.43;4.13;;;25.00;56.60;;;;;;6157976;23;20006;-92
2023/06/13 08:56:30;;;;;;;6.22;3.55;;;25.10;56.40;;;;;;6157521;23;20059;-89
2023/06/13 08:59:13;;;;;;;8.45;3.50;;;25.20;57.00;;;;;;6156675;23;20005;-89
2023/06/13 09:01:49;;;;;;;6.93;3.50;;;25.30;56.80;;;;;;6156611;23;20014;-89
2023/06/13 09:04:18;;;;;;;6.65;4.10;;;25.30;57.30;;;;;;6157254;23;20040;-87
2023/06/13 09:06:45;;;;;;;6.22;3.55;;;25.30;57.50;;;;;;6131771;23;20020;-89
2023/06/13 09:09:12;;;;;;;11.10;3.83;;;25.40;57.90;;;;;;6157238;23;20005;-93
2023/06/13 09:11:47;;;;;;;7.18;3.90;;;25.50;58.00;;;;;;6157183;23;20016;-92
2023/06/13 09:14:20;;;;;;;5.63;3.80;;;25.50;58.00;;;;;;6157719;23;20005;-93
2023/06/13 09:16:50;;;;;;;6.72;3.80;;;25.60;58.30;;;;;;6157485;23;20005;-92
2023/06/13 09:19:21;;;;;;;7.22;4.07;;;25.60;58.20;;;;;;6157177;23;20310;-90
2023/06/13 09:21:50;;;;;;;7.85;3.47;;;25.60;58.30;;;;;;6156820;23;20496;-89
2023/06/13 09:24:32;;;;;;;7.82;3.75;;;25.70;59.00;;;;;;6132158;23;20005;-88
2023/06/13 09:27:08;;;;;;;7.75;3.78;;;25.80;59.00;;;;;;6157116;23;20006;-89
2023/06/13 09:29:37;;;;;;;5.57;3.80;;;25.80;58.60;;;;;;6156536;23;20010;-89
2023/06/13 09:32:10;;;;;;;7.22;3.53;;;25.90;58.50;;;;;;6156395;23;20010;-89
2023/06/13 09:34:38;;;;;;;9.48;4.15;;;25.90;58.30;;;;;;6156313;23;20002;-90
2023/06/13 09:37:08;;;;;;;10.65;3.63;;;25.90;58.40;;;;;;6156397;23;20045;-90
2023/06/13 09:39:45;;;;;;;5.45;3.35;;;26.00;57.80;;;;;;6156178;23;20009;-89
2023/06/13 09:42:11;;;;;;;5.07;3.15;;;26.10;57.50;;;;;;6156947;23;20302;-89
2023/06/13 09:44:37;;;;;;;5.55;3.17;;;26.10;57.30;;;;;;6156190;23;20012;-90
2023/06/13 09:47:03;;;;;;;4.85;3.47;;;26.20;57.10;;;;;;6156301;23;20045;-91
2023/06/13 09:49:35;;;;;;;6.78;3.60;;;26.20;56.80;;;;;;6131205;23;20005;-89
2023/06/13 09:52:04;;;;;;;6.00;4.35;;;26.30;56.30;;;;;;6159420;23;20089;-89
2023/06/13 09:54:38;;;;;;;5.35;3.80;;;26.30;55.80;;;;;;6156041;23;20036;-89
2023/06/13 09:57:08;;;;;;;5.35;3.60;;;26.40;56.00;;;;;;6157860;23;20024;-88
2023/06/13 09:59:39;;;;;;;6.65;3.47;;;26.40;55.70;;;;;;6133603;23;20109;-90
2023/06/13 10:02:07;;;;;;;5.50;3.70;;;26.50;54.80;;;;;;6156313;23;20429;-88
2023/06/13 10:04:39;;;;;;;6.50;3.35;;;26.60;55.20;;;;;;6156557;23;20009;-88
2023/06/13 10:07:05;;;;;;;4.95;3.80;;;26.60;55.80;;;;;;6156032;23;20017;-88
2023/06/13 10:09:30;;;;;;;5.95;3.80;;;26.70;56.00;;;;;;6162270;23;20014;-94
2023/06/13 10:11:59;;;;;;;6.35;3.50;;;26.70;53.80;;;;;;6165069;23;20447;-88
2023/06/13 10:14:32;;;;;;;8.90;3.83;;;26.80;52.80;;;;;;6156032;23;20002;-88
2023/06/13 10:17:03;;;;;;;5.30;3.40;;;26.80;53.10;;;;;;6155977;23;20002;-88
2023/06/13 10:19:31;;;;;;;9.00;3.85;;;26.90;53.60;;;;;;6156896;23;20005;-88
2023/06/13 10:21:57;;;;;;;7.95;3.90;;;26.90;52.30;;;;;;6155946;23;20005;-89
2023/06/13 10:24:26;;;;;;;5.88;3.50;;;27.00;52.10;;;;;;6158663;23;20009;-89
2023/06/13 10:27:02;;;;;;;9.70;3.88;;;27.00;52.00;;;;;;6156616;23;20011;-93
2023/06/13 10:30:06;;;;;;;7.20;3.83;;;27.10;50.90;;;;;;6163544;23;20013;-94
2023/06/13 10:33:00;;;;;;;5.40;3.80;;;27.10;50.90;;;;;;6108044;23;20029;-93
2023/06/13 10:35:51;;;;;;;5.93;3.45;;;27.20;51.80;;;;;;6167375;23;20063;-93
2023/06/13 10:38:22;;;;;;;6.47;3.38;;;27.20;53.20;;;;;;6170330;23;20005;-93
2023/06/13 10:40:54;;;;;;;6.53;3.60;;;27.30;53.20;;;;;;6162516;23;20005;-89
2023/06/13 10:43:49;;;;;;;5.15;3.67;;;27.30;53.40;;;;;;6166133;23;20005;-91
2023/06/13 10:46:15;;;;;;;8.65;3.70;;;27.40;53.50;;;;;;6177829;23;20005;-90
2023/06/13 10:48:49;;;;;;;8.05;3.78;;;27.40;52.50;;;;;;6165424;23;20005;-91
2023/06/13 10:51:22;;;;;;;5.97;3.85;;;27.50;52.80;;;;;;6171804;23;20009;-93
2023/06/13 10:54:11;;;;;;;6.18;3.90;;;27.50;52.80;;;;;;6175172;23;20425;-93
2023/06/13 10:56:41;;;;;;;6.95;4.70;;;27.60;52.80;;;;;;6163762;23;19997;-89
2023/06/13 10:59:11;;;;;;;6.28;4.43;;;27.60;53.30;;;;;;6162520;23;20012;-95
2023/06/13 11:01:46;;;;;;;5.85;4.20;;;27.60;52.40;;;;;;6163033;23;20012;-93
2023/06/13 11:04:19;;;;;;;5.95;4.25;;;27.70;50.20;;;;;;6164620;23;20008;-92
2023/06/13 11:10:18;;;;;;;5.60;3.72;;;27.70;50.20;;;;;;6157894;23;20024;-95
2023/06/13 11:19:46;;;;;;;5.50;3.88;;;27.90;50.70;;;;;;6117886;23;20097;-90
2023/06/13 11:22:18;;;;;;;6.82;3.72;;;28.00;49.80;;;;;;6163289;23;20001;-89
2023/06/13 11:24:44;;;;;;;10.65;4.10;;;28.00;49.30;;;;;;6161841;23;20021;-90
2023/06/13 11:27:11;;;;;;;7.78;4.00;;;28.10;49.10;;;;;;6162602;23;20001;-90
2023/06/13 11:29:38;;;;;;;6.32;4.07;;;28.10;49.50;;;;;;6161676;23;20005;-88
2023/06/13 11:32:08;;;;;;;8.00;4.25;;;28.10;49.40;;;;;;6160449;23;20067;-89
2023/06/13 11:34:41;;;;;;;7.90;4.07;;;28.20;49.00;;;;;;6170823;23;19998;-90
2023/06/13 11:37:19;;;;;;;5.50;3.90;;;28.20;49.10;;;;;;6185521;23;19993;-89
2023/06/13 11:39:55;;;;;;;6.40;4.28;;;28.30;49.00;;;;;;6186078;23;20008;-89
2023/06/13 11:42:22;;;;;;;7.25;3.80;;;28.30;49.20;;;;;;6171116;23;19996;-89
2023/06/13 11:44:50;;;;;;;6.55;4.15;;;28.40;48.60;;;;;;6161083;23;19997;-89
2023/06/13 11:47:19;;;;;;;9.10;4.15;;;28.40;49.00;;;;;;6187942;23;20412;-90
2023/06/13 11:49:57;;;;;;;8.95;4.15;;;28.50;49.60;;;;;;6186579;23;20028;-90
2023/06/13 11:52:38;;;;;;;8.43;4.07;;;28.50;50.30;;;;;;6163311;23;20013;-95
2023/06/13 11:55:27;;;;;;;7.35;4.53;;;28.60;50.30;;;;;;6163311;23;20121;-96
2023/06/13 11:58:00;;;;;;;6.78;4.13;;;28.60;50.40;;;;;;6163333;23;20005;-95
2023/06/13 12:00:56;;;;;;;4.63;3.22;;;28.70;49.60;;;;;;6187600;23;19997;-96
2023/06/13 12:03:42;;;;;;;;;;;;;;;;;;;;;
2023/06/13 12:06:11;;;;;;;7.03;3.65;;;28.80;50.10;;;;;;6188850;23;20372;-93
2023/06/13 12:09:03;;;;;;;5.03;4.03;;;28.80;50.40;;;;;;6163315;23;20001;-95
2023/06/13 12:11:51;;;;;;;6.75;4.45;;;28.90;50.10;;;;;;6189480;23;20055;-96
2023/06/13 12:14:42;;;;;;;9.02;4.40;;;28.90;49.40;;;;;;6166733;23;19997;-96
2023/06/13 12:20:12;;;;;;;5.20;4.00;;;29.00;46.30;;;;;;6188988;23;20021;-96
2023/06/13 12:22:52;;;;;;;6.80;4.10;;;29.00;46.00;;;;;;6173272;23;20105;-93
2023/06/13 12:26:06;;;;;;;;;;;;;;;;;;;;;
2023/06/13 12:29:11;;;;;;;7.22;3.70;;;29.10;45.50;;;;;;6166616;23;20009;-94
2023/06/13 12:31:47;;;;;;;10.65;3.85;;;29.10;46.80;;;;;;6125351;23;20329;-92
2023/06/13 12:34:45;;;;;;;7.43;3.97;;;29.20;47.60;;;;;;6134914;23;20109;-93
2023/06/13 12:37:17;;;;;;;7.50;4.10;;;29.30;47.90;;;;;;6135569;23;20084;-92
2023/06/13 12:40:24;;;;;;;8.88;4.40;;;29.30;48.10;;;;;;6134968;23;20036;-96
2023/06/13 12:43:01;;;;;;;6.05;4.18;;;29.30;45.40;;;;;;6076427;23;20006;-95
2023/06/13 12:45:32;;;;;;;6.10;4.05;;;29.40;45.50;;;;;;6074833;23;20003;-91
2023/06/13 12:48:04;;;;;;;5.72;3.95;;;29.40;46.00;;;;;;6108321;23;20360;-91
2023/06/13 12:50:36;;;;;;;8.40;4.38;;;29.40;46.80;;;;;;6133371;23;20410;-90
2023/06/13 12:53:10;;;;;;;9.70;4.35;;;29.50;47.40;;;;;;6132978;23;20009;-91
2023/06/13 12:55:39;;;;;;;8.07;4.45;;;29.50;48.00;;;;;;6147022;23;20005;-94
2023/06/13 12:58:36;;;;;;;7.50;4.40;;;29.60;48.20;;;;;;6157689;23;20014;-95
2023/06/13 13:01:07;;;;;;;6.88;4.20;;;29.60;48.50;;;;;;6151815;23;20002;-91
2023/06/13 13:03:38;;;;;;;8.15;4.38;;;29.70;48.10;;;;;;6148064;23;20006;-92
2023/06/13 13:06:04;;;;;;;6.40;4.05;;;29.70;47.40;;;;;;6148828;23;20009;-92
2023/06/13 13:08:38;;;;;;;7.07;4.72;;;29.70;47.40;;;;;;6143199;23;20012;-91
2023/06/13 13:11:08;;;;;;;6.18;3.75;;;29.80;47.50;;;;;;6133849;23;20014;-91
2023/06/13 13:13:34;;;;;;;5.75;4.10;;;29.80;47.80;;;;;;6139328;23;20044;-91
2023/06/13 13:16:03;;;;;;;7.65;4.40;;;29.80;47.60;;;;;;6139947;23;20009;-91
2023/06/13 13:18:35;;;;;;;6.57;4.07;;;29.80;47.40;;;;;;6138860;23;19997;-91
2023/06/13 13:21:07;;;;;;;7.90;4.20;;;29.90;47.00;;;;;;6138381;23;20005;-90
2023/06/13 13:23:41;;;;;;;6.97;4.20;;;29.90;47.40;;;;;;6138451;23;20028;-90
2023/06/13 13:26:20;;;;;;;7.15;4.30;;;29.90;48.00;;;;;;6143575;23;20066;-89
2023/06/13 13:28:46;;;;;;;6.20;4.10;;;30.00;48.00;;;;;;6134078;23;20032;-91
2023/06/13 13:31:16;;;;;;;9.00;5.13;;;30.00;47.80;;;;;;6132126;23;20013;-90
2023/06/13 13:33:45;;;;;;;8.48;4.80;;;30.00;47.60;;;;;;6133198;23;20464;-91
2023/06/13 13:36:16;;;;;;;8.40;4.75;;;30.10;47.10;;;;;;6132596;23;20330;-90
2023/06/13 13:38:47;;;;;;;6.60;4.30;;;30.10;46.70;;;;;;6132716;23;20002;-90
2023/06/13 13:41:19;;;;;;;9.60;4.35;;;30.20;46.40;;;;;;6130614;23;20006;-92
2023/06/13 13:47:19;;;;;;;7.43;4.75;;;30.20;46.60;;;;;;6158726;23;20044;-90
2023/06/13 13:49:45;;;;;;;9.50;4.38;;;30.20;47.10;;;;;;6132704;23;20067;-90
2023/06/13 13:52:14;;;;;;;7.38;4.45;;;30.30;47.40;;;;;;6132640;23;20092;-90
2023/06/13 13:55:16;;;;;;;6.63;4.43;;;30.30;47.30;;;;;;6133123;23;20009;-90
2023/06/13 13:57:42;;;;;;;10.10;4.47;;;30.30;47.40;;;;;;6133195;23;20017;-93
2023/06/13 14:00:48;;;;;;;6.68;3.97;;;30.30;47.00;;;;;;6132433;23;20006;-92
2023/06/13 14:03:17;;;;;;;6.10;4.07;;;30.40;46.00;;;;;;6158096;23;20081;-92